Airfield :
LOGIN :

Register | Disclaimer

   EN    FR    IT 

 










Legend :    VFR   Marginal VFR   IFR   Intensive IFR   Very Intensive IFR
Visi :
Ceiling :
>= 8 km
>= 3000ft
5 to 8 km
1000 to 3000 ft
1500m to 5 km
500 to 1000 ft
800 to 1500m
200 to 500 ft
< 800m
< 200 ft
Symbols :   Thunderstorms  Fog  Heavy snow  Heavy precipitations  Wind > 20 kt
SIGMETs :     Misc.  Thunderstorms  Icing  Turbulence  Mountain Waves  Volcanic Ashes







- Airport Elevation : 336 ft
- IATA code : GCI
- Download approach charts


EGJB - Guernsey

CURRENT METAR :
  • 250750Z 36005KT 2000 BR FEW001 SCT002 BKN028 15/15 Q1018

EXPIRED METARs :
  • 250720Z 01006KT 2000 BR SCT002 BKN026 15/15 Q1017
  • 250650Z 36006KT 1600 VCFG BR SCT002 BKN038 15/15 Q1017
  • 250620Z 36005KT 1400 R09/1400 VCFG BR FEW000 SCT002 BKN042 15/15 Q1017
  • 250550Z 02006KT 0600 R09/0800 -SHRA FG FEW000 SCT001 14/14 Q1017
  • 250520Z 30005KT 0200 R27/0250 FG FEW000 BKN001 14/14 Q1017

TAF TAF EGJB
Valid from the 25 at 06:00 until the 25 at 15:00 UTC


250457Z 2506/2515 33005KT 3000 BR BKN004
TEMPO 2506/2509 0400 FG BKN000
PROB30
TEMPO 2506/2509 7000 SHRA SCT004 SCT040
TEMPO 2509/2511 9999 SCT004
BECMG 2511/2513 9999 FEW004
ATIS : +44 1481 238 957
No reported NOTAMs for that airfield.



MET'MAP, your aeronautical weather chart ! - Copyright ORBIFLY December 2007 - Disclaimer

ORBIFLY MET'MAP TEAM :

Programming & Development : Alexandra Zaïnal
Concept & Development : Baudouin d'Aumeries
Co-Development & Prog : Marc-Olivier Méhu
Technical & hardware support : Manuel Goepfert

Contact : metmap@orbifly.com




SOURCES & CREDITS :

   NOAA